Terminal Aerodrome Forecast
Issued by NWS

Home | Current Version | Previous Version | Text Only | Print | Product List | Glossary On
Versions: 1 2 3 4 5 6 7 8 9 10 11 12 13 14 15 16 17 18 19 20
260
FTPA31 PHFO 211138
TAFHLI
TAF
PHLI 211138Z 2112/2212 03020KT P6SM VCSH SCT020 BKN035
      TEMPO 2112/2116 03020G30KT 5SM -SHRA BR BKN025
     FM211600 03025G35KT P6SM -SHRA SCT015 BKN025
     FM212000 03020G30KT P6SM VCSH SCT020 BKN035=

USA.gov is the U.S. government's official web portal to all federal, state and local government web resources and services.